sensor_id;sensor_type;location;lat;lon;timestamp;pressure;altitude;pressure_sealevel;temperature;humidity
69219;BME280;56232;53.384;-2.732;2023-05-18T00:01:41;102393.48;;;15.96;22.49
69219;BME280;56232;53.384;-2.732;2023-05-18T00:04:06;102392.90;;;15.87;22.52
69219;BME280;56232;53.384;-2.732;2023-05-18T00:06:32;102390.25;;;16.28;22.67
69219;BME280;56232;53.384;-2.732;2023-05-18T00:08:57;102388.90;;;15.69;22.76
69219;BME280;56232;53.384;-2.732;2023-05-18T00:11:23;102388.56;;;15.67;22.75
69219;BME280;56232;53.384;-2.732;2023-05-18T00:13:48;102388.34;;;15.62;22.74
69219;BME280;56232;53.384;-2.732;2023-05-18T00:16:14;102390.88;;;15.55;22.60
69219;BME280;56232;53.384;-2.732;2023-05-18T00:18:39;102388.23;;;15.52;22.72
69219;BME280;56232;53.384;-2.732;2023-05-18T00:21:05;102389.10;;;15.94;22.88
69219;BME280;56232;53.384;-2.732;2023-05-18T00:23:31;102390.42;;;15.46;22.92
69219;BME280;56232;53.384;-2.732;2023-05-18T00:25:57;102389.69;;;14.96;22.93
69219;BME280;56232;53.384;-2.732;2023-05-18T00:28:22;102388.95;;;15.44;23.00
69219;BME280;56232;53.384;-2.732;2023-05-18T00:30:48;102389.51;;;15.40;23.00
69219;BME280;56232;53.384;-2.732;2023-05-18T00:33:14;102385.15;;;15.89;23.15
69219;BME280;56232;53.384;-2.732;2023-05-18T00:35:39;102380.75;;;14.86;23.26
69219;BME280;56232;53.384;-2.732;2023-05-18T00:38:05;102374.40;;;15.83;23.62
69219;BME280;56232;53.384;-2.732;2023-05-18T00:40:30;102373.47;;;15.28;23.99
69219;BME280;56232;53.384;-2.732;2023-05-18T00:42:57;102374.70;;;15.77;23.90
69219;BME280;56232;53.384;-2.732;2023-05-18T00:45:21;102380.23;;;15.31;23.70
69219;BME280;56232;53.384;-2.732;2023-05-18T00:47:47;102373.76;;;15.33;23.66
69219;BME280;56232;53.384;-2.732;2023-05-18T00:50:13;102367.07;;;15.13;24.48
69219;BME280;56232;53.384;-2.732;2023-05-18T00:52:38;102373.43;;;15.54;24.06
69219;BME280;56232;53.384;-2.732;2023-05-18T00:55:05;102374.42;;;15.03;23.94
69219;BME280;56232;53.384;-2.732;2023-05-18T00:57:30;102371.01;;;15.50;24.00
69219;BME280;56232;53.384;-2.732;2023-05-18T00:59:55;102368.94;;;15.01;23.95
69219;BME280;56232;53.384;-2.732;2023-05-18T01:02:21;102373.92;;;15.48;23.79
69219;BME280;56232;53.384;-2.732;2023-05-18T01:04:46;102376.23;;;15.35;23.88
69219;BME280;56232;53.384;-2.732;2023-05-18T01:07:11;102372.97;;;14.76;24.03
69219;BME280;56232;53.384;-2.732;2023-05-18T01:09:37;102371.26;;;14.67;23.91
69219;BME280;56232;53.384;-2.732;2023-05-18T01:12:09;102371.04;;;14.63;23.83
69219;BME280;56232;53.384;-2.732;2023-05-18T01:14:32;102371.06;;;15.73;23.85
69219;BME280;56232;53.384;-2.732;2023-05-18T01:16:55;102368.37;;;15.73;24.04
69219;BME280;56232;53.384;-2.732;2023-05-18T01:19:35;102364.86;;;15.70;24.14
69219;BME280;56232;53.384;-2.732;2023-05-18T01:21:50;102362.12;;;15.70;24.08
69219;BME280;56232;53.384;-2.732;2023-05-18T01:24:21;102360.01;;;15.71;24.00
69219;BME280;56232;53.384;-2.732;2023-05-18T01:26:35;102357.95;;;15.11;24.09
69219;BME280;56232;53.384;-2.732;2023-05-18T01:29:02;102357.71;;;15.17;24.31
69219;BME280;56232;53.384;-2.732;2023-05-18T01:31:25;102358.02;;;15.74;24.49
69219;BME280;56232;53.384;-2.732;2023-05-18T01:33:50;102359.69;;;15.69;24.39
69219;BME280;56232;53.384;-2.732;2023-05-18T01:36:16;102357.34;;;15.65;24.33
69219;BME280;56232;53.384;-2.732;2023-05-18T01:38:41;102354.78;;;15.58;24.40
69219;BME280;56232;53.384;-2.732;2023-05-18T01:41:11;102352.02;;;14.42;24.56
69219;BME280;56232;53.384;-2.732;2023-05-18T01:43:35;102348.79;;;15.42;24.80
69219;BME280;56232;53.384;-2.732;2023-05-18T01:46:04;102348.43;;;14.78;25.18
69219;BME280;56232;53.384;-2.732;2023-05-18T01:48:24;102348.38;;;14.69;24.97
69219;BME280;56232;53.384;-2.732;2023-05-18T01:50:51;102346.03;;;14.70;25.04
69219;BME280;56232;53.384;-2.732;2023-05-18T01:53:21;102345.80;;;14.21;25.40
69219;BME280;56232;53.384;-2.732;2023-05-18T01:55:40;102345.10;;;15.32;25.77
69219;BME280;56232;53.384;-2.732;2023-05-18T01:58:07;102347.16;;;15.35;25.65
69219;BME280;56232;53.384;-2.732;2023-05-18T02:00:32;102344.11;;;15.41;25.72
69219;BME280;56232;53.384;-2.732;2023-05-18T02:02:57;102340.94;;;14.84;25.86
69219;BME280;56232;53.384;-2.732;2023-05-18T02:05:22;102339.95;;;15.49;25.72
69219;BME280;56232;53.384;-2.732;2023-05-18T02:07:47;102339.77;;;14.89;25.52
69219;BME280;56232;53.384;-2.732;2023-05-18T02:10:13;102340.00;;;14.83;25.42
69219;BME280;56232;53.384;-2.732;2023-05-18T02:12:38;102339.96;;;15.35;25.49
69219;BME280;56232;53.384;-2.732;2023-05-18T02:15:05;102342.76;;;14.77;25.37
69219;BME280;56232;53.384;-2.732;2023-05-18T02:17:30;102342.46;;;15.37;25.30
69219;BME280;56232;53.384;-2.732;2023-05-18T02:19:55;102343.74;;;14.72;25.31
69219;BME280;56232;53.384;-2.732;2023-05-18T02:22:21;102345.13;;;14.66;25.36
69219;BME280;56232;53.384;-2.732;2023-05-18T02:24:47;102340.88;;;15.22;25.51
69219;BME280;56232;53.384;-2.732;2023-05-18T02:27:12;102344.49;;;14.54;25.46
69219;BME280;56232;53.384;-2.732;2023-05-18T02:29:38;102345.07;;;15.12;24.74
69219;BME280;56232;53.384;-2.732;2023-05-18T02:32:03;102345.49;;;15.12;25.17
69219;BME280;56232;53.384;-2.732;2023-05-18T02:34:28;102342.25;;;15.06;25.37
69219;BME280;56232;53.384;-2.732;2023-05-18T02:36:54;102342.09;;;15.06;25.35
69219;BME280;56232;53.384;-2.732;2023-05-18T02:39:20;102338.60;;;14.99;25.41
69219;BME280;56232;53.384;-2.732;2023-05-18T02:41:45;102340.11;;;15.02;25.24
69219;BME280;56232;53.384;-2.732;2023-05-18T02:44:10;102341.34;;;14.98;25.19
69219;BME280;56232;53.384;-2.732;2023-05-18T02:46:37;102340.82;;;14.32;25.26
69219;BME280;56232;53.384;-2.732;2023-05-18T02:49:01;102342.12;;;14.83;24.97
69219;BME280;56232;53.384;-2.732;2023-05-18T02:51:27;102341.42;;;14.82;25.58
69219;BME280;56232;53.384;-2.732;2023-05-18T02:53:52;102342.90;;;14.70;25.38
69219;BME280;56232;53.384;-2.732;2023-05-18T02:56:18;102344.16;;;14.52;25.30
69219;BME280;56232;53.384;-2.732;2023-05-18T02:58:43;102338.67;;;14.39;25.50
69219;BME280;56232;53.384;-2.732;2023-05-18T03:01:09;102334.61;;;14.29;25.92
69219;BME280;56232;53.384;-2.732;2023-05-18T03:03:35;102335.23;;;14.26;25.84
69219;BME280;56232;53.384;-2.732;2023-05-18T03:06:00;102332.55;;;14.32;25.58
69219;BME280;56232;53.384;-2.732;2023-05-18T03:08:26;102333.09;;;14.41;25.65
69219;BME280;56232;53.384;-2.732;2023-05-18T03:10:51;102332.25;;;14.50;25.72
69219;BME280;56232;53.384;-2.732;2023-05-18T03:13:17;102331.68;;;14.56;25.72
69219;BME280;56232;53.384;-2.732;2023-05-18T03:15:42;102331.63;;;14.05;25.82
69219;BME280;56232;53.384;-2.732;2023-05-18T03:18:08;102330.31;;;14.71;26.12
69219;BME280;56232;53.384;-2.732;2023-05-18T03:20:33;102329.40;;;15.04;26.45
69219;BME280;56232;53.384;-2.732;2023-05-18T03:22:59;102329.10;;;14.51;26.60
69219;BME280;56232;53.384;-2.732;2023-05-18T03:25:24;102329.76;;;14.38;26.33
69219;BME280;56232;53.384;-2.732;2023-05-18T03:27:50;102329.14;;;14.25;26.52
69219;BME280;56232;53.384;-2.732;2023-05-18T03:30:15;102327.28;;;14.59;26.49
69219;BME280;56232;53.384;-2.732;2023-05-18T03:32:40;102327.78;;;13.94;26.42
69219;BME280;56232;53.384;-2.732;2023-05-18T03:35:06;102326.69;;;14.23;26.45
69219;BME280;56232;53.384;-2.732;2023-05-18T03:37:31;102325.40;;;13.63;26.47
69219;BME280;56232;53.384;-2.732;2023-05-18T03:39:59;102328.35;;;13.85;26.19
69219;BME280;56232;53.384;-2.732;2023-05-18T03:42:23;102328.45;;;14.08;26.16
69219;BME280;56232;53.384;-2.732;2023-05-18T03:44:48;102332.93;;;14.26;26.54
69219;BME280;56232;53.384;-2.732;2023-05-18T03:47:13;102336.55;;;14.48;26.55
69219;BME280;56232;53.384;-2.732;2023-05-18T03:49:39;102337.10;;;14.60;26.74
69219;BME280;56232;53.384;-2.732;2023-05-18T03:52:05;102336.39;;;13.93;26.78
69219;BME280;56232;53.384;-2.732;2023-05-18T03:54:30;102337.76;;;14.50;27.04
69219;BME280;56232;53.384;-2.732;2023-05-18T03:56:56;102338.05;;;13.89;26.72
69219;BME280;56232;53.384;-2.732;2023-05-18T03:59:21;102334.94;;;14.99;26.59
69219;BME280;56232;53.384;-2.732;2023-05-18T04:01:47;102334.75;;;14.43;26.38
69219;BME280;56232;53.384;-2.732;2023-05-18T04:04:13;102331.78;;;14.35;26.53
69219;BME280;56232;53.384;-2.732;2023-05-18T04:06:38;102330.89;;;14.37;26.52
69219;BME280;56232;53.384;-2.732;2023-05-18T04:09:04;102331.01;;;15.44;26.74
69219;BME280;56232;53.384;-2.732;2023-05-18T04:11:30;102333.11;;;14.28;27.56
69219;BME280;56232;53.384;-2.732;2023-05-18T04:13:55;102336.68;;;14.17;28.02
69219;BME280;56232;53.384;-2.732;2023-05-18T04:16:20;102338.25;;;14.80;27.83
69219;BME280;56232;53.384;-2.732;2023-05-18T04:18:45;102337.40;;;13.80;27.89
69219;BME280;56232;53.384;-2.732;2023-05-18T04:21:11;102339.29;;;14.47;27.78
69219;BME280;56232;53.384;-2.732;2023-05-18T04:23:37;102344.75;;;15.65;27.66
69219;BME280;56232;53.384;-2.732;2023-05-18T04:26:01;102348.73;;;14.66;27.63
69219;BME280;56232;53.384;-2.732;2023-05-18T04:28:26;102352.65;;;14.71;27.68
69219;BME280;56232;53.384;-2.732;2023-05-18T04:30:52;102356.49;;;14.81;27.81
69219;BME280;56232;53.384;-2.732;2023-05-18T04:33:18;102360.91;;;14.94;27.73
69219;BME280;56232;53.384;-2.732;2023-05-18T04:35:43;102361.30;;;14.89;27.85
69219;BME280;56232;53.384;-2.732;2023-05-18T04:38:09;102361.07;;;14.93;27.74
69219;BME280;56232;53.384;-2.732;2023-05-18T04:40:34;102361.99;;;15.04;27.62
69219;BME280;56232;53.384;-2.732;2023-05-18T04:42:59;102362.81;;;15.06;27.79
69219;BME280;56232;53.384;-2.732;2023-05-18T04:45:25;102365.04;;;15.16;27.68
69219;BME280;56232;53.384;-2.732;2023-05-18T04:47:50;102360.34;;;15.23;27.75
69219;BME280;56232;53.384;-2.732;2023-05-18T04:50:17;102358.78;;;14.78;27.66
69219;BME280;56232;53.384;-2.732;2023-05-18T04:52:43;102360.94;;;15.46;27.83
69219;BME280;56232;53.384;-2.732;2023-05-18T04:55:08;102361.04;;;15.51;27.78
69219;BME280;56232;53.384;-2.732;2023-05-18T04:57:32;102360.49;;;15.46;27.96
69219;BME280;56232;53.384;-2.732;2023-05-18T04:59:58;102359.63;;;15.37;27.91
69219;BME280;56232;53.384;-2.732;2023-05-18T05:02:23;102356.77;;;14.66;28.13
69219;BME280;56232;53.384;-2.732;2023-05-18T05:04:48;102358.42;;;14.64;28.32
69219;BME280;56232;53.384;-2.732;2023-05-18T05:07:14;102363.32;;;15.32;28.55
69219;BME280;56232;53.384;-2.732;2023-05-18T05:09:40;102366.52;;;15.50;28.23
69219;BME280;56232;53.384;-2.732;2023-05-18T05:12:06;102366.00;;;15.65;28.26
69219;BME280;56232;53.384;-2.732;2023-05-18T05:14:31;102369.18;;;15.85;28.18
69219;BME280;56232;53.384;-2.732;2023-05-18T05:16:56;102370.71;;;15.41;28.07
69219;BME280;56232;53.384;-2.732;2023-05-18T05:19:22;102371.28;;;15.49;28.04
69219;BME280;56232;53.384;-2.732;2023-05-18T05:21:47;102371.05;;;15.48;28.00
69219;BME280;56232;53.384;-2.732;2023-05-18T05:24:13;102370.34;;;15.60;28.14
69219;BME280;56232;53.384;-2.732;2023-05-18T05:26:39;102373.16;;;15.72;28.06
69219;BME280;56232;53.384;-2.732;2023-05-18T05:29:04;102375.98;;;15.99;28.05
69219;BME280;56232;53.384;-2.732;2023-05-18T05:31:29;102372.59;;;15.53;28.23
69219;BME280;56232;53.384;-2.732;2023-05-18T05:33:54;102367.15;;;15.64;28.12
69219;BME280;56232;53.384;-2.732;2023-05-18T05:36:20;102364.81;;;15.87;28.25
69219;BME280;56232;53.384;-2.732;2023-05-18T05:38:46;102364.21;;;16.01;28.05
69219;BME280;56232;53.384;-2.732;2023-05-18T05:41:11;102366.14;;;16.18;28.00
69219;BME280;56232;53.384;-2.732;2023-05-18T05:43:39;102367.83;;;16.57;27.58
69219;BME280;56232;53.384;-2.732;2023-05-18T05:46:02;102365.40;;;17.03;27.51
69219;BME280;56232;53.384;-2.732;2023-05-18T05:48:28;102364.82;;;17.48;27.48
69219;BME280;56232;53.384;-2.732;2023-05-18T05:50:53;102365.91;;;16.81;27.29
69219;BME280;56232;53.384;-2.732;2023-05-18T05:53:18;102372.26;;;17.47;26.70
69219;BME280;56232;53.384;-2.732;2023-05-18T05:55:44;102378.02;;;18.07;26.68
69219;BME280;56232;53.384;-2.732;2023-05-18T05:58:10;102377.80;;;18.44;26.32
69219;BME280;56232;53.384;-2.732;2023-05-18T06:00:35;102371.31;;;18.82;25.95
69219;BME280;56232;53.384;-2.732;2023-05-18T06:03:05;102376.27;;;19.99;25.57
69219;BME280;56232;53.384;-2.732;2023-05-18T06:05:26;102381.61;;;21.04;24.91
69219;BME280;56232;53.384;-2.732;2023-05-18T06:07:51;102384.11;;;20.49;24.31
69219;BME280;56232;53.384;-2.732;2023-05-18T06:10:16;102381.11;;;21.58;23.92
69219;BME280;56232;53.384;-2.732;2023-05-18T06:12:42;102377.48;;;22.70;23.53
69219;BME280;56232;53.384;-2.732;2023-05-18T06:15:08;102378.86;;;23.42;22.32
69219;BME280;56232;53.384;-2.732;2023-05-18T06:17:32;102377.41;;;23.51;21.15
69219;BME280;56232;53.384;-2.732;2023-05-18T06:19:57;102378.20;;;24.79;20.89
69219;BME280;56232;53.384;-2.732;2023-05-18T06:22:23;102375.39;;;25.35;18.67
69219;BME280;56232;53.384;-2.732;2023-05-18T06:24:49;102378.76;;;24.65;19.24
69219;BME280;56232;53.384;-2.732;2023-05-18T06:27:14;102376.08;;;25.45;19.27
69219;BME280;56232;53.384;-2.732;2023-05-18T06:29:40;102377.40;;;25.38;18.62
69219;BME280;56232;53.384;-2.732;2023-05-18T06:32:06;102377.59;;;26.83;18.21
69219;BME280;56232;53.384;-2.732;2023-05-18T06:34:31;102380.16;;;27.67;17.71
69219;BME280;56232;53.384;-2.732;2023-05-18T06:36:56;102383.02;;;28.75;17.22
69219;BME280;56232;53.384;-2.732;2023-05-18T06:39:22;102382.55;;;30.02;16.40
69219;BME280;56232;53.384;-2.732;2023-05-18T06:41:47;102386.96;;;31.08;16.08
69219;BME280;56232;53.384;-2.732;2023-05-18T06:44:13;102385.24;;;31.05;15.47
69219;BME280;56232;53.384;-2.732;2023-05-18T06:46:39;102382.29;;;32.00;14.56
69219;BME280;56232;53.384;-2.732;2023-05-18T06:49:04;102385.64;;;31.87;13.64
69219;BME280;56232;53.384;-2.732;2023-05-18T06:51:29;102386.35;;;32.51;12.90
69219;BME280;56232;53.384;-2.732;2023-05-18T06:53:55;102387.03;;;33.82;12.81
69219;BME280;56232;53.384;-2.732;2023-05-18T06:56:20;102386.14;;;33.74;12.51
69219;BME280;56232;53.384;-2.732;2023-05-18T06:58:46;102387.28;;;34.59;12.19
69219;BME280;56232;53.384;-2.732;2023-05-18T07:01:11;102390.17;;;34.95;11.76
69219;BME280;56232;53.384;-2.732;2023-05-18T07:03:37;102386.52;;;36.13;11.39
69219;BME280;56232;53.384;-2.732;2023-05-18T07:06:02;102385.59;;;36.20;10.77
69219;BME280;56232;53.384;-2.732;2023-05-18T07:08:28;102386.19;;;35.99;10.76
69219;BME280;56232;53.384;-2.732;2023-05-18T07:10:53;102385.51;;;35.79;10.51
69219;BME280;56232;53.384;-2.732;2023-05-18T07:13:19;102380.91;;;35.72;10.40
69219;BME280;56232;53.384;-2.732;2023-05-18T07:15:44;102386.90;;;35.40;10.15
69219;BME280;56232;53.384;-2.732;2023-05-18T07:18:09;102385.40;;;35.43;10.43
69219;BME280;56232;53.384;-2.732;2023-05-18T07:20:35;102385.78;;;35.56;10.44
69219;BME280;56232;53.384;-2.732;2023-05-18T07:23:00;102386.51;;;36.38;10.22
69219;BME280;56232;53.384;-2.732;2023-05-18T07:25:26;102387.94;;;36.90;10.13
69219;BME280;56232;53.384;-2.732;2023-05-18T07:27:52;102386.13;;;36.10;9.76
69219;BME280;56232;53.384;-2.732;2023-05-18T07:30:17;102386.19;;;36.49;9.81
69219;BME280;56232;53.384;-2.732;2023-05-18T07:32:43;102387.71;;;37.18;9.76
69219;BME280;56232;53.384;-2.732;2023-05-18T07:35:08;102385.79;;;36.71;9.65
69219;BME280;56232;53.384;-2.732;2023-05-18T07:37:34;102386.77;;;37.48;9.51
69219;BME280;56232;53.384;-2.732;2023-05-18T07:39:59;102378.90;;;37.40;9.22
69219;BME280;56232;53.384;-2.732;2023-05-18T07:42:25;102381.09;;;38.22;9.10
69219;BME280;56232;53.384;-2.732;2023-05-18T07:44:50;102380.69;;;38.37;8.79
69219;BME280;56232;53.384;-2.732;2023-05-18T07:47:15;102382.65;;;39.43;8.79
69219;BME280;56232;53.384;-2.732;2023-05-18T07:49:41;102385.97;;;38.78;8.62
69219;BME280;56232;53.384;-2.732;2023-05-18T07:52:06;102385.85;;;39.00;8.63
69219;BME280;56232;53.384;-2.732;2023-05-18T07:54:37;102383.08;;;38.28;8.49
69219;BME280;56232;53.384;-2.732;2023-05-18T07:56:57;102380.40;;;38.78;8.60
69219;BME280;56232;53.384;-2.732;2023-05-18T07:59:22;102380.88;;;38.03;8.69
69219;BME280;56232;53.384;-2.732;2023-05-18T08:01:48;102382.34;;;38.21;8.60
69219;BME280;56232;53.384;-2.732;2023-05-18T08:04:13;102380.61;;;38.56;8.66
69219;BME280;56232;53.384;-2.732;2023-05-18T08:06:39;102381.99;;;39.46;8.63
69219;BME280;56232;53.384;-2.732;2023-05-18T08:09:04;102385.89;;;39.76;8.53
69219;BME280;56232;53.384;-2.732;2023-05-18T08:11:30;102381.70;;;39.52;8.50
69219;BME280;56232;53.384;-2.732;2023-05-18T08:13:55;102385.39;;;39.09;8.48
69219;BME280;56232;53.384;-2.732;2023-05-18T08:16:21;102379.50;;;38.53;8.95
69219;BME280;56232;53.384;-2.732;2023-05-18T08:18:46;102378.93;;;35.78;9.66
69219;BME280;56232;53.384;-2.732;2023-05-18T08:21:17;102375.38;;;35.40;10.14
69219;BME280;56232;53.384;-2.732;2023-05-18T08:23:38;102374.86;;;34.75;10.56
69219;BME280;56232;53.384;-2.732;2023-05-18T08:26:03;102371.47;;;33.48;11.03
69219;BME280;56232;53.384;-2.732;2023-05-18T08:28:28;102365.82;;;33.14;11.48
69219;BME280;56232;53.384;-2.732;2023-05-18T08:30:54;102367.49;;;32.11;11.77
69219;BME280;56232;53.384;-2.732;2023-05-18T08:33:19;102363.59;;;31.33;12.05
69219;BME280;56232;53.384;-2.732;2023-05-18T08:35:45;102362.77;;;31.95;12.20
69219;BME280;56232;53.384;-2.732;2023-05-18T08:38:10;102362.01;;;31.94;12.08
69219;BME280;56232;53.384;-2.732;2023-05-18T08:40:42;102365.47;;;34.57;11.56
69219;BME280;56232;53.384;-2.732;2023-05-18T08:43:06;102362.05;;;34.96;11.07
69219;BME280;56232;53.384;-2.732;2023-05-18T08:45:33;102364.51;;;35.95;10.46
69219;BME280;56232;53.384;-2.732;2023-05-18T08:47:54;102363.80;;;37.23;10.21
69219;BME280;56232;53.384;-2.732;2023-05-18T08:50:19;102363.62;;;38.98;9.85
69219;BME280;56232;53.384;-2.732;2023-05-18T08:52:46;102365.22;;;38.02;9.66
69219;BME280;56232;53.384;-2.732;2023-05-18T08:55:10;102360.31;;;38.21;9.63
69219;BME280;56232;53.384;-2.732;2023-05-18T08:57:35;102360.07;;;37.54;10.35
69219;BME280;56232;53.384;-2.732;2023-05-18T09:00:01;102362.66;;;35.31;10.81
69219;BME280;56232;53.384;-2.732;2023-05-18T09:02:26;102364.61;;;34.89;11.20
69219;BME280;56232;53.384;-2.732;2023-05-18T09:04:51;102368.22;;;34.68;11.46
69219;BME280;56232;53.384;-2.732;2023-05-18T09:07:17;102360.55;;;34.82;11.75
69219;BME280;56232;53.384;-2.732;2023-05-18T09:09:42;102361.68;;;34.39;11.79
69219;BME280;56232;53.384;-2.732;2023-05-18T09:12:08;102361.25;;;34.29;12.04
69219;BME280;56232;53.384;-2.732;2023-05-18T09:14:33;102360.58;;;34.05;12.24
69219;BME280;56232;53.384;-2.732;2023-05-18T09:16:59;102359.90;;;33.51;12.61
69219;BME280;56232;53.384;-2.732;2023-05-18T09:19:24;102354.55;;;32.48;13.02
69219;BME280;56232;53.384;-2.732;2023-05-18T09:21:49;102352.58;;;31.74;13.18
69219;BME280;56232;53.384;-2.732;2023-05-18T09:24:16;102351.07;;;32.46;13.26
69219;BME280;56232;53.384;-2.732;2023-05-18T09:26:40;102349.60;;;33.45;13.37
69219;BME280;56232;53.384;-2.732;2023-05-18T09:29:15;102350.35;;;32.49;13.26
69219;BME280;56232;53.384;-2.732;2023-05-18T09:31:32;102349.58;;;32.34;13.60
69219;BME280;56232;53.384;-2.732;2023-05-18T09:33:57;102352.16;;;32.02;13.53
69219;BME280;56232;53.384;-2.732;2023-05-18T09:36:24;102348.52;;;32.41;13.51
69219;BME280;56232;53.384;-2.732;2023-05-18T09:38:50;102350.45;;;33.66;13.30
69219;BME280;56232;53.384;-2.732;2023-05-18T09:41:15;102354.82;;;34.59;12.90
69219;BME280;56232;53.384;-2.732;2023-05-18T09:43:40;102357.79;;;34.58;12.57
69219;BME280;56232;53.384;-2.732;2023-05-18T09:46:06;102355.05;;;35.93;12.41
69219;BME280;56232;53.384;-2.732;2023-05-18T09:48:30;102354.53;;;36.09;12.02
69219;BME280;56232;53.384;-2.732;2023-05-18T09:50:58;102355.59;;;36.22;11.62
69219;BME280;56232;53.384;-2.732;2023-05-18T09:53:21;102352.87;;;36.19;11.36
69219;BME280;56232;53.384;-2.732;2023-05-18T09:55:48;102350.96;;;35.37;11.17
69219;BME280;56232;53.384;-2.732;2023-05-18T09:58:12;102348.70;;;34.99;11.23
69219;BME280;56232;53.384;-2.732;2023-05-18T10:00:41;102347.60;;;35.82;11.03
69219;BME280;56232;53.384;-2.732;2023-05-18T10:03:03;102350.08;;;35.83;11.09
69219;BME280;56232;53.384;-2.732;2023-05-18T10:05:28;102350.77;;;34.84;11.25
69219;BME280;56232;53.384;-2.732;2023-05-18T10:07:55;102349.75;;;34.42;11.44
69219;BME280;56232;53.384;-2.732;2023-05-18T10:10:21;102350.42;;;33.29;11.67
69219;BME280;56232;53.384;-2.732;2023-05-18T10:12:45;102349.72;;;33.79;11.95
69219;BME280;56232;53.384;-2.732;2023-05-18T10:15:13;102346.80;;;32.78;12.39
69219;BME280;56232;53.384;-2.732;2023-05-18T10:17:37;102346.88;;;32.70;12.93
69219;BME280;56232;53.384;-2.732;2023-05-18T10:20:01;102351.03;;;31.66;13.29
69219;BME280;56232;53.384;-2.732;2023-05-18T10:22:27;102352.15;;;31.05;13.59
69219;BME280;56232;53.384;-2.732;2023-05-18T10:24:53;102352.32;;;31.31;13.89
69219;BME280;56232;53.384;-2.732;2023-05-18T10:27:22;102355.21;;;30.67;14.27
69219;BME280;56232;53.384;-2.732;2023-05-18T10:29:44;102355.33;;;30.29;14.54
69219;BME280;56232;53.384;-2.732;2023-05-18T10:32:11;102355.47;;;30.19;14.89
69219;BME280;56232;53.384;-2.732;2023-05-18T10:34:35;102357.63;;;29.90;14.93
69219;BME280;56232;53.384;-2.732;2023-05-18T10:37:01;102362.08;;;29.25;15.11
69219;BME280;56232;53.384;-2.732;2023-05-18T10:39:26;102359.12;;;28.13;15.35
69219;BME280;56232;53.384;-2.732;2023-05-18T10:41:53;102360.70;;;28.28;15.62
69219;BME280;56232;53.384;-2.732;2023-05-18T10:44:17;102358.49;;;27.70;15.88
69219;BME280;56232;53.384;-2.732;2023-05-18T10:46:42;102363.59;;;28.10;16.10
69219;BME280;56232;53.384;-2.732;2023-05-18T10:49:10;102364.67;;;28.12;16.26
69219;BME280;56232;53.384;-2.732;2023-05-18T10:51:34;102361.97;;;28.73;16.23
69219;BME280;56232;53.384;-2.732;2023-05-18T10:54:09;102362.55;;;27.78;16.25
69219;BME280;56232;53.384;-2.732;2023-05-18T10:56:24;102363.24;;;27.38;16.55
69219;BME280;56232;53.384;-2.732;2023-05-18T10:58:50;102360.64;;;27.44;16.64
69219;BME280;56232;53.384;-2.732;2023-05-18T11:01:15;102361.46;;;27.24;16.66
69219;BME280;56232;53.384;-2.732;2023-05-18T11:03:41;102365.75;;;27.60;16.69
69219;BME280;56232;53.384;-2.732;2023-05-18T11:06:08;102367.14;;;27.01;16.64
69219;BME280;56232;53.384;-2.732;2023-05-18T11:08:32;102369.96;;;26.91;16.76
69219;BME280;56232;53.384;-2.732;2023-05-18T11:11:00;102368.91;;;26.88;16.75
69219;BME280;56232;53.384;-2.732;2023-05-18T11:13:27;102370.22;;;26.90;16.76
69219;BME280;56232;53.384;-2.732;2023-05-18T11:18:14;102363.26;;;27.55;16.64
69219;BME280;56232;53.384;-2.732;2023-05-18T11:20:40;102362.96;;;27.05;16.54
69219;BME280;56232;53.384;-2.732;2023-05-18T11:23:05;102362.19;;;27.16;16.56
69219;BME280;56232;53.384;-2.732;2023-05-18T11:25:37;102359.79;;;27.19;16.44
69219;BME280;56232;53.384;-2.732;2023-05-18T11:27:58;102363.61;;;27.58;16.33
69219;BME280;56232;53.384;-2.732;2023-05-18T11:30:28;102364.11;;;27.77;16.28
69219;BME280;56232;53.384;-2.732;2023-05-18T11:32:49;102364.19;;;28.04;16.18
69219;BME280;56232;53.384;-2.732;2023-05-18T11:35:21;102365.21;;;28.28;16.14
69219;BME280;56232;53.384;-2.732;2023-05-18T11:37:46;102360.43;;;28.02;15.99
69219;BME280;56232;53.384;-2.732;2023-05-18T11:40:06;102361.69;;;28.06;16.26
69219;BME280;56232;53.384;-2.732;2023-05-18T11:42:31;102359.54;;;28.16;16.34
69219;BME280;56232;53.384;-2.732;2023-05-18T11:44:55;102359.01;;;28.60;16.17
69219;BME280;56232;53.384;-2.732;2023-05-18T11:47:23;102358.52;;;28.36;15.92
69219;BME280;56232;53.384;-2.732;2023-05-18T11:49:47;102356.18;;;28.30;15.93
69219;BME280;56232;53.384;-2.732;2023-05-18T11:52:16;102359.14;;;28.64;15.95
69219;BME280;56232;53.384;-2.732;2023-05-18T11:54:42;102358.33;;;29.45;15.98
69219;BME280;56232;53.384;-2.732;2023-05-18T11:57:03;102358.06;;;29.10;15.81
69219;BME280;56232;53.384;-2.732;2023-05-18T11:59:30;102355.43;;;29.37;15.52
69219;BME280;56232;53.384;-2.732;2023-05-18T12:01:55;102357.33;;;29.01;15.32
69219;BME280;56232;53.384;-2.732;2023-05-18T12:04:20;102357.69;;;28.52;15.21
69219;BME280;56232;53.384;-2.732;2023-05-18T12:06:45;102352.76;;;29.24;15.23
69219;BME280;56232;53.384;-2.732;2023-05-18T12:09:11;102350.59;;;28.59;15.38
69219;BME280;56232;53.384;-2.732;2023-05-18T12:11:37;102347.96;;;28.11;15.44
69219;BME280;56232;53.384;-2.732;2023-05-18T12:14:01;102345.90;;;29.03;15.54
69219;BME280;56232;53.384;-2.732;2023-05-18T12:16:28;102345.77;;;28.74;15.47
69219;BME280;56232;53.384;-2.732;2023-05-18T12:18:52;102349.96;;;28.81;15.39
69219;BME280;56232;53.384;-2.732;2023-05-18T12:21:20;102348.75;;;28.85;15.37
69219;BME280;56232;53.384;-2.732;2023-05-18T12:23:44;102351.18;;;28.27;15.45
69219;BME280;56232;53.384;-2.732;2023-05-18T12:26:09;102349.87;;;29.69;15.24
69219;BME280;56232;53.384;-2.732;2023-05-18T12:28:35;102348.99;;;29.27;15.09
69219;BME280;56232;53.384;-2.732;2023-05-18T12:31:00;102344.64;;;30.15;15.26
69219;BME280;56232;53.384;-2.732;2023-05-18T12:33:26;102344.55;;;29.32;15.20